Other Surface Observations
Issued by NWS Great Falls, MT

Home | Current Version | Previous Version | Text Only | Print | Product List | Glossary On
Versions: 1 2 3 4 5 6 7 8 9 10 11 12 13 14 15 16 17 18 19 20 21 22 23 24 25 26 27 28 29 30 31 32 33 34 35 36 37 38 39 40 41 42 43 44 45 46 47 48 49 50
655
SXUS55 KTFX 110914
OSOTFX
AREA AWOS OBSERVATIONS
NATIONAL WEATHER SERVICE GREAT FALLS MT
0214 AM MST THU FEB 11 2016

METAR KPWD 110915Z AUTO 07003KT 1 1/4SM M05/M06 A3007 RMK PLENTYWOOD
METAR KPO1 110915Z AUTO 07007KT 3/4SM M03/M05 A3007 RMK POPLAR
METAR K1S3 110915Z AUTO 06003KT 9SM 00/M01 A2999 RMK FORSYTH
METAR KS71 110915Z AUTO 09005KT 10SM 00/M01 A2998 RMK CHINOOK
METAR K38S 110915Z AUTO 31008KT 10SM 03/M03 A3019 RMK DEER LODGE
METAR K3U3 110915Z AUTO 18007KT 10SM 07/M04 A3018 RMK ANACONDA
METAR K6S5 110915Z AUTO 21005KT 10SM 09/M02 A3023 RMK HAMILTON



USA.gov is the U.S. government's official web portal to all federal, state and local government web resources and services.